createdAt,value
2022-10-31T00:00:55.970Z,6.13
2022-10-31T00:03:22.713Z,7.07
2022-10-31T00:05:50.596Z,5.73
2022-10-31T00:08:18.492Z,5.50
2022-10-31T00:10:45.949Z,6.00
2022-10-31T00:13:14.037Z,6.13
2022-10-31T00:15:41.470Z,6.37
2022-10-31T00:18:09.354Z,5.57
2022-10-31T00:20:36.036Z,5.90
2022-10-31T00:23:04.197Z,5.37
2022-10-31T00:25:36.106Z,6.10
2022-10-31T00:28:03.773Z,5.80
2022-10-31T00:30:30.450Z,5.47
2022-10-31T00:32:57.680Z,5.40
2022-10-31T00:35:24.398Z,6.47
2022-10-31T00:37:51.069Z,6.03
2022-10-31T00:40:17.462Z,6.00
2022-10-31T00:42:43.932Z,5.97
2022-10-31T00:45:11.287Z,6.23
2022-10-31T00:47:38.374Z,5.87
2022-10-31T00:50:09.202Z,5.67
2022-10-31T00:52:35.888Z,6.50
2022-10-31T00:55:02.269Z,6.00
2022-10-31T00:57:28.678Z,5.90
2022-10-31T00:59:55.098Z,5.87
2022-10-31T01:02:22.244Z,5.90
2022-10-31T01:04:48.869Z,5.37
2022-10-31T01:07:15.318Z,5.60
2022-10-31T01:09:42.028Z,6.07
2022-10-31T01:12:09.216Z,6.07
2022-10-31T01:14:35.749Z,6.53
2022-10-31T01:17:02.167Z,5.70
2022-10-31T01:19:28.666Z,6.00
2022-10-31T01:21:56.156Z,6.60
2022-10-31T01:24:22.659Z,5.87
2022-10-31T01:26:49.110Z,6.20
2022-10-31T01:29:15.567Z,6.53
2022-10-31T01:31:42.061Z,6.20
2022-10-31T01:34:08.578Z,5.53
2022-10-31T01:36:37.482Z,5.70
2022-10-31T01:39:06.847Z,5.50
2022-10-31T01:41:37.171Z,6.23
2022-10-31T01:44:24.754Z,5.30
2022-10-31T01:47:02.071Z,5.87
2022-10-31T01:49:49.845Z,5.33
2022-10-31T01:52:25.220Z,5.80
2022-10-31T01:55:06.828Z,5.77
2022-10-31T01:57:35.990Z,6.60
2022-10-31T02:00:07.153Z,6.07
2022-10-31T02:02:33.737Z,5.80
2022-10-31T02:05:05.409Z,5.60
2022-10-31T02:07:40.319Z,5.73
2022-10-31T02:10:07.481Z,7.07
2022-10-31T02:12:37.014Z,5.90
2022-10-31T02:15:04.787Z,6.23
2022-10-31T02:17:32.922Z,6.23
2022-10-31T02:20:18.707Z,7.50
2022-10-31T02:23:24.032Z,6.83
2022-10-31T02:26:12.026Z,6.10
2022-10-31T02:29:15.509Z,6.23
2022-10-31T02:32:02.277Z,6.40
2022-10-31T02:34:38.057Z,6.20
2022-10-31T02:37:22.679Z,6.13
2022-10-31T02:40:00.124Z,6.20
2022-10-31T02:42:54.812Z,6.47
2022-10-31T02:45:29.241Z,5.80
2022-10-31T02:47:59.804Z,6.63
2022-10-31T02:50:33.690Z,7.13
2022-10-31T02:53:00.265Z,6.00
2022-10-31T02:55:26.603Z,6.70
2022-10-31T02:57:58.409Z,6.03
2022-10-31T03:00:25.535Z,6.90
2022-10-31T03:03:12.815Z,6.40
2022-10-31T03:06:10.540Z,5.90
2022-10-31T03:09:17.602Z,5.83
2022-10-31T03:11:54.012Z,6.00
2022-10-31T03:14:32.193Z,6.60
2022-10-31T03:17:03.977Z,5.87
2022-10-31T03:19:35.574Z,6.13
2022-10-31T03:22:16.609Z,6.33
2022-10-31T03:24:44.140Z,6.30
2022-10-31T03:27:13.757Z,5.53
2022-10-31T03:29:42.952Z,6.67
2022-10-31T03:32:17.778Z,6.07
2022-10-31T03:34:46.265Z,6.30
2022-10-31T03:37:16.586Z,5.87
2022-10-31T03:39:45.658Z,6.43
2022-10-31T03:42:16.403Z,5.70
2022-10-31T03:44:49.729Z,6.00
2022-10-31T03:47:16.673Z,5.50
2022-10-31T03:49:43.094Z,6.40
2022-10-31T03:52:38.233Z,5.87
2022-10-31T03:55:19.451Z,5.87
2022-10-31T03:57:51.942Z,6.27
2022-10-31T04:00:19.403Z,7.47
2022-10-31T04:02:56.891Z,7.10
2022-10-31T04:05:23.841Z,6.43
2022-10-31T04:07:54.242Z,7.10
2022-10-31T04:10:22.171Z,6.27
2022-10-31T04:12:54.214Z,6.17
2022-10-31T04:15:23.165Z,6.53
2022-10-31T04:17:53.280Z,7.87
2022-10-31T04:20:19.836Z,7.73
2022-10-31T04:22:46.244Z,6.53
2022-10-31T04:25:12.625Z,7.80
2022-10-31T04:27:39.026Z,6.30
2022-10-31T04:30:06.039Z,7.17
2022-10-31T04:32:32.411Z,6.83
2022-10-31T04:34:58.813Z,6.50
2022-10-31T04:37:25.180Z,6.90
2022-10-31T04:39:51.559Z,6.87
2022-10-31T04:42:17.979Z,6.77
2022-10-31T04:44:44.399Z,6.70
2022-10-31T04:47:10.822Z,7.90
2022-10-31T04:49:37.247Z,7.30
2022-10-31T04:52:03.805Z,7.50
2022-10-31T04:54:30.236Z,6.10
2022-10-31T04:56:56.646Z,7.03
2022-10-31T04:59:23.058Z,7.97
2022-10-31T05:01:49.542Z,7.40
2022-10-31T05:04:16.086Z,7.23
2022-10-31T05:06:42.473Z,6.90
2022-10-31T05:09:08.914Z,8.10
2022-10-31T05:11:35.366Z,7.10
2022-10-31T05:14:01.822Z,6.87
2022-10-31T05:16:29.130Z,8.03
2022-10-31T05:18:55.523Z,7.97
2022-10-31T05:21:21.920Z,7.60
2022-10-31T05:23:48.758Z,7.27
2022-10-31T05:26:15.406Z,6.70
2022-10-31T05:28:41.830Z,7.20
2022-10-31T05:31:08.233Z,6.50
2022-10-31T05:33:34.660Z,8.00
2022-10-31T05:36:01.129Z,8.30
2022-10-31T05:38:27.526Z,8.07
2022-10-31T05:41:01.995Z,7.23
2022-10-31T05:43:29.195Z,8.13
2022-10-31T05:45:56.588Z,8.77
2022-10-31T05:48:23.547Z,7.73
2022-10-31T05:50:50.535Z,7.23
2022-10-31T05:53:17.443Z,7.87
2022-10-31T05:55:44.465Z,7.30
2022-10-31T05:58:12.212Z,8.10
2022-10-31T06:00:38.925Z,7.43
2022-10-31T06:05:39.336Z,6.80
2022-10-31T06:08:06.107Z,7.00
2022-10-31T06:10:32.553Z,7.90
2022-10-31T06:12:59.000Z,8.40
2022-10-31T06:15:25.406Z,8.83
2022-10-31T06:18:03.053Z,8.03
2022-10-31T06:20:29.752Z,7.43
2022-10-31T06:22:56.158Z,7.40
2022-10-31T06:25:22.723Z,7.37
2022-10-31T06:27:49.133Z,7.60
2022-10-31T06:30:16.031Z,7.53
2022-10-31T06:32:42.448Z,7.67
2022-10-31T06:35:09.081Z,6.90
2022-10-31T06:37:35.515Z,7.80
2022-10-31T06:40:01.938Z,8.17
2022-10-31T06:42:28.329Z,7.40
2022-10-31T06:44:55.002Z,8.03
2022-10-31T06:47:21.409Z,8.00
2022-10-31T06:49:47.838Z,7.70
2022-10-31T06:52:14.333Z,7.23
2022-10-31T06:54:40.744Z,11.27
2022-10-31T06:57:07.142Z,8.77
2022-10-31T06:59:33.649Z,8.40
2022-10-31T07:02:00.125Z,7.80
2022-10-31T07:04:26.714Z,7.03
2022-10-31T07:06:53.713Z,7.50
2022-10-31T07:09:20.355Z,7.33
2022-10-31T07:11:46.768Z,7.57
2022-10-31T07:14:13.157Z,8.77
2022-10-31T07:16:39.554Z,7.53
2022-10-31T07:19:05.942Z,8.10
2022-10-31T07:21:32.335Z,8.47
2022-10-31T07:23:58.722Z,8.77
2022-10-31T07:26:25.192Z,8.70
2022-10-31T07:28:51.573Z,8.07
2022-10-31T07:31:17.961Z,9.43
2022-10-31T07:33:44.370Z,9.70
2022-10-31T07:36:10.796Z,9.37
2022-10-31T07:38:37.295Z,8.97
2022-10-31T07:41:03.717Z,8.33
2022-10-31T07:43:30.204Z,8.77
2022-10-31T07:45:56.668Z,8.13
2022-10-31T07:48:23.135Z,9.20
2022-10-31T07:50:49.661Z,8.70
2022-10-31T07:53:16.856Z,8.87
2022-10-31T07:55:43.812Z,8.73
2022-10-31T07:58:15.177Z,9.23
2022-10-31T08:00:45.231Z,10.60
2022-10-31T08:03:14.853Z,11.80
2022-10-31T08:05:46.869Z,9.50
2022-10-31T08:08:14.660Z,10.90
2022-10-31T08:10:41.627Z,10.10
2022-10-31T08:13:13.873Z,9.83
2022-10-31T08:15:42.569Z,11.47
2022-10-31T08:18:14.552Z,10.13
2022-10-31T08:20:42.160Z,10.40
2022-10-31T08:23:11.145Z,15.90
2022-10-31T08:25:38.815Z,13.50
2022-10-31T08:28:06.454Z,11.40
2022-10-31T08:30:34.922Z,11.37
2022-10-31T08:33:13.379Z,11.20
2022-10-31T08:35:40.556Z,11.70
2022-10-31T08:38:08.603Z,11.60
2022-10-31T08:40:38.905Z,10.47
2022-10-31T08:43:16.808Z,11.37
2022-10-31T08:45:44.850Z,12.07
2022-10-31T08:48:16.130Z,13.57
2022-10-31T08:50:43.498Z,12.00
2022-10-31T08:53:19.999Z,13.40
2022-10-31T08:55:47.492Z,13.20
2022-10-31T08:58:16.746Z,12.97
2022-10-31T09:00:43.712Z,15.27
2022-10-31T09:03:16.128Z,14.10
2022-10-31T09:05:43.065Z,13.70
2022-10-31T09:08:15.759Z,13.23
2022-10-31T09:10:43.970Z,14.47
2022-10-31T09:13:13.390Z,15.37
2022-10-31T09:15:41.863Z,13.30
2022-10-31T09:18:09.613Z,15.00
2022-10-31T09:20:37.369Z,14.40
2022-10-31T09:23:06.164Z,14.73
2022-10-31T09:25:35.172Z,12.77
2022-10-31T09:28:03.586Z,14.20
2022-10-31T09:30:33.403Z,13.57
2022-10-31T09:33:01.949Z,14.37
2022-10-31T09:35:28.725Z,14.23
2022-10-31T09:38:00.464Z,15.60
2022-10-31T09:40:37.460Z,15.47
2022-10-31T09:44:02.681Z,15.70
2022-10-31T09:46:45.622Z,13.47
2022-10-31T09:49:30.439Z,15.27
2022-10-31T09:55:03.275Z,14.47
2022-10-31T09:57:34.433Z,13.77
2022-10-31T10:00:01.959Z,14.90
2022-10-31T10:02:39.823Z,13.60
2022-10-31T10:05:25.620Z,15.20
2022-10-31T10:08:17.910Z,14.47
2022-10-31T10:10:56.221Z,14.20
2022-10-31T10:13:53.082Z,14.17
2022-10-31T10:16:56.748Z,14.40
2022-10-31T10:19:32.170Z,15.70
2022-10-31T10:22:18.781Z,14.50
2022-10-31T10:24:54.409Z,14.40
2022-10-31T10:27:47.692Z,14.40
2022-10-31T10:30:16.251Z,13.50
2022-10-31T10:32:53.228Z,12.60
2022-10-31T10:35:32.029Z,12.33
2022-10-31T10:38:15.939Z,13.03
2022-10-31T10:40:43.166Z,12.77
2022-10-31T10:43:23.939Z,12.80
2022-10-31T10:46:50.468Z,12.57
2022-10-31T10:49:23.032Z,11.40
2022-10-31T10:52:19.369Z,11.77
2022-10-31T10:55:23.591Z,12.40
2022-10-31T10:57:55.017Z,10.67
2022-10-31T11:00:33.590Z,12.13
2022-10-31T11:03:00.505Z,11.30
2022-10-31T11:05:39.954Z,10.80
2022-10-31T11:08:07.529Z,10.53
2022-10-31T11:10:34.593Z,10.07
2022-10-31T11:13:18.515Z,10.00
2022-10-31T11:16:12.503Z,9.00
2022-10-31T11:18:42.823Z,9.00
2022-10-31T11:21:29.307Z,8.70
2022-10-31T11:24:23.009Z,8.23
2022-10-31T11:26:52.001Z,8.87
2022-10-31T11:29:23.625Z,9.20
2022-10-31T11:31:53.855Z,8.43
2022-10-31T11:34:31.828Z,8.30
2022-10-31T11:37:26.348Z,6.40
2022-10-31T11:40:07.084Z,7.73
2022-10-31T11:42:41.260Z,6.57
2022-10-31T11:45:19.970Z,7.40
2022-10-31T11:47:50.833Z,6.83
2022-10-31T11:50:42.799Z,6.67
2022-10-31T11:53:27.589Z,6.63
2022-10-31T11:56:14.138Z,6.93
2022-10-31T11:58:41.526Z,7.10
2022-10-31T12:01:24.727Z,6.00
2022-10-31T12:04:03.082Z,6.40
2022-10-31T12:06:34.704Z,5.80
2022-10-31T12:09:01.134Z,7.00
2022-10-31T12:11:30.286Z,6.53
2022-10-31T12:14:15.081Z,6.03
2022-10-31T12:16:59.010Z,5.70
2022-10-31T12:19:28.516Z,5.57
2022-10-31T12:22:18.620Z,4.47
2022-10-31T12:25:03.815Z,5.03
2022-10-31T12:27:33.310Z,5.53
2022-10-31T12:30:21.302Z,5.43
2022-10-31T12:32:56.863Z,4.83
2022-10-31T12:35:36.624Z,5.73
2022-10-31T12:38:36.914Z,4.60
2022-10-31T12:41:21.262Z,5.47
2022-10-31T12:43:51.472Z,4.90
2022-10-31T12:46:54.527Z,5.27
2022-10-31T12:49:50.099Z,4.90
2022-10-31T12:52:28.589Z,4.50
2022-10-31T12:55:17.552Z,4.77
2022-10-31T12:57:48.253Z,5.00
2022-10-31T13:00:20.374Z,4.53
2022-10-31T13:03:14.048Z,4.50
2022-10-31T13:05:47.754Z,4.50
2022-10-31T13:08:23.073Z,4.60
2022-10-31T13:11:19.336Z,5.50
2022-10-31T13:14:03.603Z,4.40
2022-10-31T13:16:43.596Z,4.57
2022-10-31T13:19:12.955Z,4.87
2022-10-31T13:21:48.929Z,4.10
2022-10-31T13:24:21.579Z,4.90
2022-10-31T13:26:53.100Z,5.40
2022-10-31T13:29:37.883Z,4.63
2022-10-31T13:32:08.463Z,4.47
2022-10-31T13:34:43.159Z,4.50
2022-10-31T13:37:18.802Z,5.00
2022-10-31T13:40:03.372Z,4.60
2022-10-31T13:42:45.010Z,4.70
2022-10-31T13:45:20.231Z,5.00
2022-10-31T13:48:20.138Z,4.40
2022-10-31T13:51:29.589Z,5.30
2022-10-31T13:53:55.984Z,4.50
2022-10-31T13:56:23.872Z,4.57
2022-10-31T13:59:15.746Z,5.47
2022-10-31T14:02:15.183Z,4.30
2022-10-31T14:04:56.088Z,4.60
2022-10-31T14:07:24.569Z,5.33
2022-10-31T14:10:08.994Z,4.43
2022-10-31T14:12:40.448Z,4.50
2022-10-31T14:15:20.340Z,4.80
2022-10-31T14:17:48.684Z,4.60
2022-10-31T14:20:16.166Z,5.17
2022-10-31T14:22:43.403Z,4.77
2022-10-31T14:25:30.460Z,5.27
2022-10-31T14:27:58.653Z,4.83
2022-10-31T14:30:27.522Z,4.67
2022-10-31T14:33:03.343Z,7.10
2022-10-31T14:35:46.076Z,4.27
2022-10-31T14:38:26.601Z,5.00
2022-10-31T14:41:27.001Z,5.10
2022-10-31T14:44:27.586Z,5.50
2022-10-31T14:47:30.996Z,4.50
2022-10-31T14:50:31.829Z,4.40
2022-10-31T14:53:04.456Z,4.20
2022-10-31T14:55:31.749Z,4.67
2022-10-31T14:58:08.219Z,4.33
2022-10-31T15:00:36.635Z,4.20
2022-10-31T15:03:17.474Z,4.73
2022-10-31T15:05:49.576Z,4.23
2022-10-31T15:08:48.865Z,4.10
2022-10-31T15:11:20.504Z,4.10
2022-10-31T15:13:48.388Z,5.33
2022-10-31T15:16:18.982Z,4.03
2022-10-31T15:18:49.787Z,4.80
2022-10-31T15:21:18.170Z,3.97
2022-10-31T15:23:45.497Z,3.90
2022-10-31T15:26:17.916Z,4.70
2022-10-31T15:28:44.340Z,3.93
2022-10-31T15:31:17.854Z,4.07
2022-10-31T15:33:49.848Z,4.30
2022-10-31T15:36:28.481Z,3.90
2022-10-31T15:38:57.785Z,4.20
2022-10-31T15:41:39.918Z,3.87
2022-10-31T15:44:15.936Z,4.63
2022-10-31T15:46:42.810Z,3.90
2022-10-31T15:49:28.052Z,6.07
2022-10-31T15:51:54.953Z,12.10
2022-10-31T15:54:21.531Z,5.40
2022-10-31T15:56:48.915Z,4.17
2022-10-31T15:59:28.175Z,3.93
2022-10-31T16:02:04.555Z,3.90
2022-10-31T16:04:31.179Z,4.27
2022-10-31T16:07:20.144Z,4.40
2022-10-31T16:10:01.100Z,3.90
2022-10-31T16:12:38.081Z,4.83
2022-10-31T16:15:05.870Z,9.50
2022-10-31T16:17:32.756Z,6.10
2022-10-31T16:20:02.179Z,4.73
2022-10-31T16:22:37.568Z,5.87
2022-10-31T16:25:34.268Z,7.43
2022-10-31T16:28:05.550Z,4.57
2022-10-31T16:30:38.690Z,3.93
2022-10-31T16:33:07.018Z,3.63
2022-10-31T16:35:36.373Z,4.07
2022-10-31T16:38:03.863Z,4.90
2022-10-31T16:40:31.744Z,3.70
2022-10-31T16:43:00.521Z,4.77
2022-10-31T16:45:31.341Z,5.80
2022-10-31T16:48:06.977Z,5.17
2022-10-31T16:50:33.657Z,3.90
2022-10-31T16:53:13.442Z,4.33
2022-10-31T16:55:59.214Z,4.50
2022-10-31T16:58:30.533Z,3.47
2022-10-31T17:01:25.321Z,4.57
2022-10-31T17:03:51.780Z,4.97
2022-10-31T17:06:18.173Z,4.53
2022-10-31T17:08:44.625Z,4.10
2022-10-31T17:11:19.733Z,4.40
2022-10-31T17:13:46.370Z,4.90
2022-10-31T17:16:15.171Z,5.50
2022-10-31T17:18:43.696Z,4.67
2022-10-31T17:21:18.351Z,5.73
2022-10-31T17:23:45.072Z,4.97
2022-10-31T17:26:11.789Z,4.07
2022-10-31T17:28:38.251Z,4.97
2022-10-31T17:31:04.766Z,4.80
2022-10-31T17:33:31.276Z,4.40
2022-10-31T17:35:57.792Z,5.13
2022-10-31T17:38:24.383Z,4.80
2022-10-31T17:40:50.874Z,4.20
2022-10-31T17:43:17.344Z,4.77
2022-10-31T17:45:43.794Z,4.57
2022-10-31T17:48:12.575Z,6.03
2022-10-31T17:50:39.025Z,4.50
2022-10-31T17:53:05.598Z,4.40
2022-10-31T17:55:36.067Z,4.93
2022-10-31T17:58:03.937Z,4.63
2022-10-31T18:00:30.425Z,8.17
2022-10-31T18:02:56.798Z,7.10
2022-10-31T18:05:23.209Z,7.83
2022-10-31T18:07:51.158Z,5.73
2022-10-31T18:10:17.707Z,4.93
2022-10-31T18:12:44.135Z,4.17
2022-10-31T18:15:10.933Z,4.50
2022-10-31T18:17:41.007Z,4.97
2022-10-31T18:20:09.883Z,7.27
2022-10-31T18:22:36.549Z,6.00
2022-10-31T18:25:03.330Z,5.93
2022-10-31T18:27:29.824Z,4.90
2022-10-31T18:29:56.305Z,6.00
2022-10-31T18:32:22.714Z,7.90
2022-10-31T18:34:49.217Z,14.73
2022-10-31T18:37:15.643Z,6.73
2022-10-31T18:39:42.073Z,6.37
2022-10-31T18:42:08.557Z,5.50
2022-10-31T18:44:35.008Z,7.13
2022-10-31T18:47:01.421Z,5.30
2022-10-31T18:49:32.508Z,5.20
2022-10-31T18:51:59.742Z,6.63
2022-10-31T18:54:26.449Z,5.43
2022-10-31T18:56:52.938Z,4.80
2022-10-31T18:59:19.366Z,4.73
2022-10-31T19:01:46.673Z,4.53
2022-10-31T19:04:13.486Z,4.60
2022-10-31T19:06:39.959Z,5.80
2022-10-31T19:09:09.515Z,4.80
2022-10-31T19:11:37.961Z,12.13
2022-10-31T19:14:05.600Z,6.80
2022-10-31T19:16:32.084Z,5.60
2022-10-31T19:19:00.030Z,4.70
2022-10-31T19:21:27.517Z,4.20
2022-10-31T19:23:56.412Z,4.60
2022-10-31T19:26:23.251Z,5.20
2022-10-31T19:28:49.697Z,4.60
2022-10-31T19:31:18.880Z,4.40
2022-10-31T19:33:46.099Z,4.87
2022-10-31T19:36:15.508Z,5.30
2022-10-31T19:38:44.788Z,5.27
2022-10-31T19:41:29.992Z,4.80
2022-10-31T19:43:59.517Z,4.47
2022-10-31T19:46:52.660Z,4.17
2022-10-31T19:49:12.533Z,4.13
2022-10-31T19:51:39.046Z,4.30
2022-10-31T19:54:05.513Z,4.13
2022-10-31T19:56:31.965Z,5.40
2022-10-31T19:59:02.665Z,4.20
2022-10-31T20:01:29.131Z,4.40
2022-10-31T20:03:55.582Z,4.57
2022-10-31T20:06:26.958Z,3.93
2022-10-31T20:08:56.099Z,3.80
2022-10-31T20:11:24.344Z,3.83
2022-10-31T20:13:50.927Z,4.07
2022-10-31T20:16:17.790Z,3.60
2022-10-31T20:18:44.649Z,17.97
2022-10-31T20:21:14.863Z,5.10
2022-10-31T20:23:42.077Z,6.43
2022-10-31T20:26:11.908Z,4.30
2022-10-31T20:28:43.364Z,3.80
2022-10-31T20:31:12.722Z,4.33
2022-10-31T20:33:39.767Z,4.50
2022-10-31T20:36:08.225Z,4.60
2022-10-31T20:38:38.037Z,4.23
2022-10-31T20:41:06.049Z,3.60
2022-10-31T20:43:33.917Z,8.23
2022-10-31T20:46:09.942Z,4.83
2022-10-31T20:48:36.391Z,4.03
2022-10-31T20:51:05.904Z,4.20
2022-10-31T20:53:33.516Z,4.40
2022-10-31T20:56:07.226Z,4.30
2022-10-31T20:58:38.103Z,3.87
2022-10-31T21:01:08.232Z,8.87
2022-10-31T21:03:36.496Z,4.33
2022-10-31T21:06:05.350Z,4.50
2022-10-31T21:08:32.930Z,12.60
2022-10-31T21:11:00.543Z,5.70
2022-10-31T21:13:28.459Z,4.40
2022-10-31T21:16:07.018Z,4.50
2022-10-31T21:18:38.220Z,5.93
2022-10-31T21:21:28.891Z,3.83
2022-10-31T21:24:12.600Z,3.87
2022-10-31T21:26:42.388Z,3.87
2022-10-31T21:29:10.495Z,3.93
2022-10-31T21:31:38.361Z,3.70
2022-10-31T21:34:05.542Z,3.90
2022-10-31T21:36:32.752Z,4.50
2022-10-31T21:38:59.191Z,3.83
2022-10-31T21:41:26.465Z,14.87
2022-10-31T21:43:57.119Z,5.30
2022-10-31T21:46:26.352Z,5.00
2022-10-31T21:48:53.466Z,5.30
2022-10-31T21:51:28.063Z,4.20
2022-10-31T21:54:14.009Z,3.77
2022-10-31T21:56:41.040Z,6.70
2022-10-31T21:59:07.725Z,4.83
2022-10-31T22:01:35.171Z,4.10
2022-10-31T22:04:01.732Z,4.00
2022-10-31T22:06:31.945Z,4.03
2022-10-31T22:09:00.884Z,3.97
2022-10-31T22:11:30.710Z,19.13
2022-10-31T22:13:59.794Z,5.00
2022-10-31T22:16:28.980Z,3.77
2022-10-31T22:18:57.786Z,3.70
2022-10-31T22:21:26.952Z,4.13
2022-10-31T22:23:55.814Z,4.30
2022-10-31T22:26:22.987Z,3.97
2022-10-31T22:28:55.995Z,3.90
2022-10-31T22:31:24.505Z,4.03
2022-10-31T22:33:51.963Z,4.00
2022-10-31T22:36:29.656Z,6.00
2022-10-31T22:38:56.653Z,5.20
2022-10-31T22:41:28.671Z,4.33
2022-10-31T22:43:56.060Z,4.40
2022-10-31T22:46:27.743Z,3.80
2022-10-31T22:48:56.678Z,6.00
2022-10-31T22:51:37.730Z,4.50
2022-10-31T22:54:06.881Z,6.40
2022-10-31T22:56:34.358Z,8.33
2022-10-31T22:59:01.369Z,4.90
2022-10-31T23:01:30.359Z,4.20
2022-10-31T23:03:56.966Z,4.20
2022-10-31T23:06:27.266Z,3.50
2022-10-31T23:08:54.371Z,3.90
2022-10-31T23:11:24.221Z,4.80
2022-10-31T23:14:11.684Z,4.23
2022-10-31T23:16:53.508Z,3.97
2022-10-31T23:19:27.651Z,4.80
2022-10-31T23:22:00.097Z,5.93
2022-10-31T23:24:33.660Z,4.93
2022-10-31T23:27:11.251Z,4.67
2022-10-31T23:29:44.720Z,4.80
2022-10-31T23:32:15.054Z,5.60
2022-10-31T23:34:42.129Z,3.70
2022-10-31T23:37:09.020Z,4.10
2022-10-31T23:39:35.778Z,4.50
2022-10-31T23:42:02.823Z,4.40
2022-10-31T23:44:29.253Z,5.30
2022-10-31T23:46:55.795Z,5.20
2022-10-31T23:49:22.179Z,4.93
2022-10-31T23:51:48.574Z,4.57
2022-10-31T23:54:15.090Z,4.30
2022-10-31T23:56:41.511Z,4.30
2022-10-31T23:59:08.433Z,4.37
